Time;durP1;ratioP1;P1;durP2;ratioP2;P2;SDS_P1;SDS_P2;PMS_P1;PMS_P2;Temp;Humidity;BMP_temperature;BMP_pressure;BME280_temperature;BME280_humidity;BME280_pressure;Samples;Min_cycle;Max_cycle;Signal;HPM_P1;HPM_P2
2022/06/28 00:00:52;;;;;;;;;2.00;0.33;;;;;;;;5119737;27;45703;-76
2022/06/28 00:03:17;;;;;;;;;0.00;0.00;;;;;;;;5119810;27;45488;-76
2022/06/28 00:05:43;;;;;;;;;0.00;0.00;;;;;;;;5119296;27;46729;-76
2022/06/28 00:08:08;;;;;;;;;0.00;0.00;;;;;;;;5119503;27;45351;-75
2022/06/28 00:10:33;;;;;;;;;0.00;0.00;;;;;;;;5119786;27;45442;-76
2022/06/28 00:12:59;;;;;;;;;0.00;0.00;;;;;;;;5119840;27;45296;-75
2022/06/28 00:18:08;;;;;;;;;0.00;0.00;;;;;;;;5119384;27;45449;-76
2022/06/28 00:20:33;;;;;;;;;0.00;0.00;;;;;;;;5119739;27;45801;-76
2022/06/28 00:22:59;;;;;;;;;0.00;0.00;;;;;;;;5119558;27;45295;-76
2022/06/28 00:25:24;;;;;;;;;1.00;1.00;;;;;;;;5119112;27;45615;-75
2022/06/28 00:27:49;;;;;;;;;0.00;0.00;;;;;;;;5119266;27;45405;-74
2022/06/28 00:30:15;;;;;;;;;1.00;1.00;;;;;;;;5119152;27;45347;-75
2022/06/28 00:32:40;;;;;;;;;1.00;1.00;;;;;;;;5119461;27;45275;-74
2022/06/28 00:35:06;;;;;;;;;0.00;0.00;;;;;;;;5118849;27;45439;-75
2022/06/28 00:37:31;;;;;;;;;1.00;1.00;;;;;;;;5118914;27;45417;-75
2022/06/28 00:39:56;;;;;;;;;0.67;0.00;;;;;;;;5119305;27;45226;-75
2022/06/28 00:42:22;;;;;;;;;1.67;1.00;;;;;;;;5119348;27;45439;-74
2022/06/28 00:44:47;;;;;;;;;2.33;1.00;;;;;;;;5118617;27;45448;-72
2022/06/28 00:47:13;;;;;;;;;2.00;1.00;;;;;;;;5118970;27;45278;-74
2022/06/28 00:49:40;;;;;;;;;0.00;0.00;;;;;;;;5118759;27;45223;-75
2022/06/28 00:52:05;;;;;;;;;3.00;0.00;;;;;;;;5119185;27;45413;-75
2022/06/28 00:54:31;;;;;;;;;0.00;0.00;;;;;;;;5118174;27;47485;-74
2022/06/28 00:56:56;;;;;;;;;1.00;1.00;;;;;;;;5119024;27;45406;-75
2022/06/28 00:59:21;;;;;;;;;3.00;1.00;;;;;;;;5118354;27;45405;-75
2022/06/28 01:01:47;;;;;;;;;3.00;0.00;;;;;;;;5119000;27;45529;-75
2022/06/28 01:04:12;;;;;;;;;0.33;0.00;;;;;;;;5118767;27;46550;-75
2022/06/28 01:06:38;;;;;;;;;2.00;1.00;;;;;;;;5118817;27;45415;-74
2022/06/28 01:09:03;;;;;;;;;3.33;0.00;;;;;;;;5117495;27;45447;-72
2022/06/28 01:11:28;;;;;;;;;2.00;0.00;;;;;;;;5118663;27;45303;-73
2022/06/28 01:13:57;;;;;;;;;1.00;0.00;;;;;;;;5118558;27;46474;-72
2022/06/28 01:16:23;;;;;;;;;2.00;0.00;;;;;;;;5118546;27;45446;-72
2022/06/28 01:18:48;;;;;;;;;1.00;0.00;;;;;;;;5118597;27;45142;-72
2022/06/28 01:21:14;;;;;;;;;0.00;0.00;;;;;;;;5119213;27;45142;-73
2022/06/28 01:23:43;;;;;;;;;0.00;0.00;;;;;;;;5117102;27;47439;-73
2022/06/28 01:26:09;;;;;;;;;4.00;3.33;;;;;;;;5118141;27;45349;-72
2022/06/28 01:28:35;;;;;;;;;0.33;0.00;;;;;;;;5121588;27;45263;-72
2022/06/28 01:31:00;;;;;;;;;1.00;1.00;;;;;;;;5122133;27;45408;-73
2022/06/28 01:33:26;;;;;;;;;1.67;1.00;;;;;;;;5121935;27;45442;-72
2022/06/28 01:35:51;;;;;;;;;3.67;0.33;;;;;;;;5122044;27;45468;-73
2022/06/28 01:38:16;;;;;;;;;0.00;0.00;;;;;;;;5122100;27;45348;-73
2022/06/28 01:40:45;;;;;;;;;2.00;0.67;;;;;;;;5122527;27;45360;-72
2022/06/28 01:43:12;;;;;;;;;1.67;1.00;;;;;;;;5121683;27;46699;-73
2022/06/28 01:45:38;;;;;;;;;4.67;2.00;;;;;;;;5121592;27;45252;-73
2022/06/28 01:48:03;;;;;;;;;0.33;0.00;;;;;;;;5122102;27;45252;-74
2022/06/28 01:50:28;;;;;;;;;1.33;0.00;;;;;;;;5122038;27;45446;-74
2022/06/28 01:52:54;;;;;;;;;4.33;4.33;;;;;;;;5121744;27;45346;-74
2022/06/28 01:55:20;;;;;;;;;1.00;1.00;;;;;;;;5121265;27;45414;-74
2022/06/28 01:57:45;;;;;;;;;0.33;0.33;;;;;;;;5121668;27;45521;-74
2022/06/28 02:00:10;;;;;;;;;0.00;0.00;;;;;;;;5121680;27;45439;-74
2022/06/28 02:02:36;;;;;;;;;1.67;1.00;;;;;;;;5121579;27;45647;-74
2022/06/28 02:05:02;;;;;;;;;3.00;1.00;;;;;;;;5121892;27;45359;-74
2022/06/28 02:07:27;;;;;;;;;1.00;1.00;;;;;;;;5121274;27;45373;-75
2022/06/28 02:09:52;;;;;;;;;0.00;0.00;;;;;;;;5121063;27;45416;-74
2022/06/28 02:12:18;;;;;;;;;2.00;0.00;;;;;;;;5120805;27;46012;-75
2022/06/28 02:14:43;;;;;;;;;1.33;0.00;;;;;;;;5121137;27;45365;-74
2022/06/28 02:17:08;;;;;;;;;3.67;0.67;;;;;;;;5121294;27;45288;-74
2022/06/28 02:19:33;;;;;;;;;0.33;0.33;;;;;;;;5121549;27;45211;-74
2022/06/28 02:21:58;;;;;;;;;2.33;0.00;;;;;;;;5121147;27;47019;-74
2022/06/28 02:24:24;;;;;;;;;0.00;0.00;;;;;;;;5121399;27;45228;-73
2022/06/28 02:26:49;;;;;;;;;0.00;0.00;;;;;;;;5121288;27;45203;-74
2022/06/28 02:29:14;;;;;;;;;1.67;1.33;;;;;;;;5121583;27;45199;-74
2022/06/28 02:31:39;;;;;;;;;0.00;0.00;;;;;;;;5121014;27;46580;-75
2022/06/28 02:34:05;;;;;;;;;1.00;0.00;;;;;;;;5121206;27;45306;-74
2022/06/28 02:41:49;;;;;;;;;0.67;0.00;;;;;;;;5120808;27;45333;-75
2022/06/28 02:44:18;;;;;;;;;2.00;0.00;;;;;;;;5121005;27;45329;-75
2022/06/28 02:46:43;;;;;;;;;0.00;0.00;;;;;;;;5120942;27;45489;-75
2022/06/28 02:49:08;;;;;;;;;0.67;0.00;;;;;;;;5121029;27;45331;-75
2022/06/28 02:51:33;;;;;;;;;0.00;0.00;;;;;;;;5120791;27;45347;-75
2022/06/28 02:53:59;;;;;;;;;1.67;0.67;;;;;;;;5120656;27;45322;-74
2022/06/28 02:56:25;;;;;;;;;0.00;0.00;;;;;;;;5120965;27;45289;-73
2022/06/28 02:58:50;;;;;;;;;0.00;0.00;;;;;;;;5120933;27;45325;-75
2022/06/28 03:01:15;;;;;;;;;1.00;0.00;;;;;;;;5120524;27;46468;-72
2022/06/28 03:03:40;;;;;;;;;0.00;0.00;;;;;;;;5120794;27;45359;-71
2022/06/28 03:06:06;;;;;;;;;1.00;1.00;;;;;;;;5120746;27;45371;-71
2022/06/28 03:08:31;;;;;;;;;0.33;0.33;;;;;;;;5120733;27;45429;-76
2022/06/28 03:10:56;;;;;;;;;3.33;1.00;;;;;;;;5120368;27;45727;-71
2022/06/28 03:13:21;;;;;;;;;1.67;0.00;;;;;;;;5120364;27;45382;-73
2022/06/28 03:15:47;;;;;;;;;0.33;0.33;;;;;;;;5120542;27;46149;-74
2022/06/28 03:18:12;;;;;;;;;1.00;1.00;;;;;;;;5120715;27;45283;-74
2022/06/28 03:20:37;;;;;;;;;0.00;0.00;;;;;;;;5120337;27;46469;-74
2022/06/28 03:23:03;;;;;;;;;1.33;0.33;;;;;;;;5111947;27;45216;-75
2022/06/28 03:25:28;;;;;;;;;0.75;0.75;;;;;;;;5111038;27;45739;-72
2022/06/28 03:27:53;;;;;;;;;1.00;1.00;;;;;;;;5100013;27;45289;-74
2022/06/28 03:30:18;;;;;;;;;0.75;0.00;;;;;;;;5099378;27;46396;-73
2022/06/28 03:32:44;;;;;;;;;0.00;0.00;;;;;;;;5099476;27;45334;-73
2022/06/28 03:35:09;;;;;;;;;0.00;0.00;;;;;;;;5099760;27;45355;-74
2022/06/28 03:37:35;;;;;;;;;1.00;0.00;;;;;;;;5099992;27;45366;-74
2022/06/28 03:40:01;;;;;;;;;0.67;0.00;;;;;;;;5099239;27;45310;-74
2022/06/28 03:42:26;;;;;;;;;0.00;0.00;;;;;;;;5099416;27;45720;-74
2022/06/28 03:44:51;;;;;;;;;0.00;0.00;;;;;;;;5099780;27;45185;-74
2022/06/28 03:47:17;;;;;;;;;0.75;0.75;;;;;;;;5099584;27;45232;-74
2022/06/28 03:49:42;;;;;;;;;1.00;1.00;;;;;;;;5099209;27;45489;-74
2022/06/28 03:52:07;;;;;;;;;3.33;2.00;;;;;;;;5098146;27;45402;-76
2022/06/28 03:54:33;;;;;;;;;1.33;1.00;;;;;;;;5099362;27;45606;-76
2022/06/28 03:56:58;;;;;;;;;0.00;0.00;;;;;;;;5099574;27;45415;-74
2022/06/28 03:59:23;;;;;;;;;1.00;1.00;;;;;;;;5098827;27;46343;-73
2022/06/28 04:01:48;;;;;;;;;3.33;3.00;;;;;;;;5098991;27;45400;-74
2022/06/28 04:04:14;;;;;;;;;4.00;1.00;;;;;;;;5099146;27;45283;-74
2022/06/28 04:06:39;;;;;;;;;5.00;5.00;;;;;;;;5099274;27;45344;-70
2022/06/28 04:09:04;;;;;;;;;2.00;2.00;;;;;;;;5098979;27;46369;-73
2022/06/28 04:11:29;;;;;;;;;2.00;1.00;;;;;;;;5098693;27;45453;-79
2022/06/28 04:13:55;;;;;;;;;2.00;0.00;;;;;;;;5099204;27;45347;-77
2022/06/28 04:16:20;;;;;;;;;2.00;0.33;;;;;;;;5099007;27;45298;-76
2022/06/28 04:18:46;;;;;;;;;3.67;0.00;;;;;;;;5098662;27;46665;-74
2022/06/28 04:21:13;;;;;;;;;1.00;1.00;;;;;;;;5098944;27;45359;-74
2022/06/28 04:23:38;;;;;;;;;0.67;0.67;;;;;;;;5098935;27;45848;-71
2022/06/28 04:26:04;;;;;;;;;0.67;0.67;;;;;;;;5099256;27;45369;-72
2022/06/28 04:28:29;;;;;;;;;1.33;1.33;;;;;;;;5098502;27;45515;-74
2022/06/28 04:30:55;;;;;;;;;1.67;0.33;;;;;;;;5098562;27;45286;-74
2022/06/28 04:33:20;;;;;;;;;1.00;1.00;;;;;;;;5098787;27;45384;-74
2022/06/28 04:35:45;;;;;;;;;1.00;1.00;;;;;;;;5098872;27;45237;-73
2022/06/28 04:38:11;;;;;;;;;3.33;2.00;;;;;;;;5098467;27;46514;-74
2022/06/28 04:40:36;;;;;;;;;1.00;1.00;;;;;;;;5098473;27;45306;-78
2022/06/28 04:43:02;;;;;;;;;5.00;4.00;;;;;;;;5098488;27;45297;-74
2022/06/28 04:45:28;;;;;;;;;3.67;1.00;;;;;;;;5098926;27;45385;-76
2022/06/28 04:47:53;;;;;;;;;5.00;3.67;;;;;;;;5098120;27;46356;-75
2022/06/28 04:50:18;;;;;;;;;12.67;12.33;;;;;;;;5098474;27;45326;-76
2022/06/28 04:52:43;;;;;;;;;20.33;17.67;;;;;;;;5098422;27;45351;-76
2022/06/28 04:55:08;;;;;;;;;1.00;1.00;;;;;;;;5098431;27;45366;-75
2022/06/28 04:57:34;;;;;;;;;4.00;2.00;;;;;;;;5098388;27;45263;-71
2022/06/28 04:59:59;;;;;;;;;9.00;5.33;;;;;;;;5097772;27;45369;-73
2022/06/28 05:02:24;;;;;;;;;3.00;2.00;;;;;;;;5097534;27;45319;-73
2022/06/28 05:04:49;;;;;;;;;3.00;2.00;;;;;;;;5098193;27;45306;-73
2022/06/28 05:07:15;;;;;;;;;12.33;12.33;;;;;;;;5097553;27;47622;-73
2022/06/28 05:09:40;;;;;;;;;6.67;2.33;;;;;;;;5097881;27;45332;-72
2022/06/28 05:12:06;;;;;;;;;1.00;1.00;;;;;;;;5098004;27;45253;-73
2022/06/28 05:14:31;;;;;;;;;15.00;12.00;;;;;;;;5098157;27;45368;-73
2022/06/28 05:16:57;;;;;;;;;5.00;3.00;;;;;;;;5097549;27;46498;-73
2022/06/28 05:19:22;;;;;;;;;5.00;2.00;;;;;;;;5097721;27;45368;-73
2022/06/28 05:21:47;;;;;;;;;2.33;2.33;;;;;;;;5097811;27;45297;-73
2022/06/28 05:24:12;;;;;;;;;6.67;5.00;;;;;;;;5098087;27;45400;-73
2022/06/28 05:26:38;;;;;;;;;4.00;4.00;;;;;;;;5097825;27;45457;-73
2022/06/28 05:29:03;;;;;;;;;4.00;2.00;;;;;;;;5097760;27;45429;-73
2022/06/28 05:31:28;;;;;;;;;3.33;3.33;;;;;;;;5097755;27;45292;-72
2022/06/28 05:33:55;;;;;;;;;2.33;2.33;;;;;;;;5097857;27;45585;-73
2022/06/28 05:36:20;;;;;;;;;4.00;2.00;;;;;;;;5097601;27;45724;-72
2022/06/28 05:38:45;;;;;;;;;14.00;11.00;;;;;;;;5097469;27;45224;-73
2022/06/28 05:41:10;;;;;;;;;4.67;3.33;;;;;;;;5097499;27;45359;-73
2022/06/28 05:43:36;;;;;;;;;2.00;2.00;;;;;;;;5097777;27;45303;-73
2022/06/28 05:46:01;;;;;;;;;2.33;2.33;;;;;;;;5097369;27;45425;-73
2022/06/28 05:48:26;;;;;;;;;3.67;2.00;;;;;;;;5097082;27;45239;-73
2022/06/28 05:50:52;;;;;;;;;4.67;3.00;;;;;;;;5096181;27;45333;-72
2022/06/28 05:53:17;;;;;;;;;3.33;1.67;;;;;;;;5097780;27;45241;-73
2022/06/28 05:55:42;;;;;;;;;1.33;1.33;;;;;;;;5097517;27;45395;-72
2022/06/28 05:58:07;;;;;;;;;2.67;2.67;;;;;;;;5097368;27;45284;-73
2022/06/28 06:00:34;;;;;;;;;3.67;2.33;;;;;;;;5097397;27;45595;-73
2022/06/28 06:02:59;;;;;;;;;4.67;4.00;;;;;;;;5097760;27;45465;-73
2022/06/28 06:05:25;;;;;;;;;6.00;5.33;;;;;;;;5097263;27;46184;-73
2022/06/28 06:07:50;;;;;;;;;5.00;4.00;;;;;;;;5097368;27;45359;-72
2022/06/28 06:10:15;;;;;;;;;3.00;3.00;;;;;;;;5097414;27;45229;-72
2022/06/28 06:12:40;;;;;;;;;4.00;1.00;;;;;;;;5097432;27;45377;-72
2022/06/28 06:15:06;;;;;;;;;2.00;2.00;;;;;;;;5099536;27;46218;-73
2022/06/28 06:17:31;;;;;;;;;3.00;3.00;;;;;;;;5100653;27;45475;-73
2022/06/28 06:19:56;;;;;;;;;19.67;17.33;;;;;;;;5100564;27;45282;-73
2022/06/28 06:22:21;;;;;;;;;3.67;2.00;;;;;;;;5100960;27;45337;-73
2022/06/28 06:24:47;;;;;;;;;6.67;4.00;;;;;;;;5100505;27;46138;-74
2022/06/28 06:27:14;;;;;;;;;3.33;1.00;;;;;;;;5100573;27;45325;-73
2022/06/28 06:29:41;;;;;;;;;4.33;2.00;;;;;;;;5100518;27;45246;-74
2022/06/28 06:32:06;;;;;;;;;8.00;8.00;;;;;;;;5100479;27;45439;-73
2022/06/28 06:34:31;;;;;;;;;1.67;1.00;;;;;;;;5100235;27;45456;-73
2022/06/28 06:36:57;;;;;;;;;4.67;1.00;;;;;;;;5100309;27;45336;-73
2022/06/28 06:39:22;;;;;;;;;1.33;1.00;;;;;;;;5100571;27;45425;-72
2022/06/28 06:41:47;;;;;;;;;2.67;2.67;;;;;;;;5100641;27;45196;-72
2022/06/28 06:44:12;;;;;;;;;13.00;10.67;;;;;;;;5100541;27;45556;-73
2022/06/28 06:46:38;;;;;;;;;2.00;1.00;;;;;;;;5100367;27;45283;-73
2022/06/28 06:49:03;;;;;;;;;2.33;2.00;;;;;;;;5100350;27;45252;-74
2022/06/28 06:51:30;;;;;;;;;1.00;0.00;;;;;;;;5100663;27;45294;-72
2022/06/28 06:53:56;;;;;;;;;0.00;0.00;;;;;;;;5100166;27;46234;-72
2022/06/28 06:56:21;;;;;;;;;1.00;1.00;;;;;;;;5100195;27;45422;-74
2022/06/28 06:58:46;;;;;;;;;0.00;0.00;;;;;;;;5098407;27;45316;-72
2022/06/28 07:01:11;;;;;;;;;1.00;1.00;;;;;;;;5100342;27;45378;-73
2022/06/28 07:03:40;;;;;;;;;1.00;1.00;;;;;;;;5099817;27;47071;-72
2022/06/28 07:06:06;;;;;;;;;2.00;0.00;;;;;;;;5100089;27;45365;-72
2022/06/28 07:08:31;;;;;;;;;3.00;2.00;;;;;;;;5099885;27;45497;-72
2022/06/28 07:10:56;;;;;;;;;0.00;0.00;;;;;;;;5100234;27;45810;-72
2022/06/28 07:13:21;;;;;;;;;1.00;0.00;;;;;;;;5099790;27;46745;-72
2022/06/28 07:15:46;;;;;;;;;0.67;0.00;;;;;;;;5099929;27;45201;-72
2022/06/28 07:18:12;;;;;;;;;1.00;0.00;;;;;;;;5099771;27;45316;-72
2022/06/28 07:20:37;;;;;;;;;3.00;1.00;;;;;;;;5099920;27;45237;-74
2022/06/28 07:23:02;;;;;;;;;1.00;0.00;;;;;;;;5099566;27;45516;-74
2022/06/28 07:25:27;;;;;;;;;0.67;0.67;;;;;;;;5099707;27;45366;-74
2022/06/28 07:27:53;;;;;;;;;2.00;1.00;;;;;;;;5099554;27;45279;-74
2022/06/28 07:30:18;;;;;;;;;1.33;1.33;;;;;;;;5099401;27;45365;-74
2022/06/28 07:32:43;;;;;;;;;1.00;0.00;;;;;;;;5099344;27;46539;-70
2022/06/28 07:35:09;;;;;;;;;2.67;0.00;;;;;;;;5099646;27;45414;-72
2022/06/28 07:37:34;;;;;;;;;0.67;0.00;;;;;;;;5099926;27;45393;-72
2022/06/28 07:39:59;;;;;;;;;0.00;0.00;;;;;;;;5099814;27;45435;-74
2022/06/28 07:42:24;;;;;;;;;0.00;0.00;;;;;;;;5099401;27;45658;-72
2022/06/28 07:44:50;;;;;;;;;0.00;0.00;;;;;;;;5098259;27;45360;-72
2022/06/28 07:47:15;;;;;;;;;1.00;1.00;;;;;;;;5099482;27;45361;-72
2022/06/28 07:52:39;;;;;;;;;1.00;1.00;;;;;;;;5099300;27;45468;-72
2022/06/28 07:55:07;;;;;;;;;3.00;0.00;;;;;;;;5104906;27;45429;-73
2022/06/28 07:57:32;;;;;;;;;4.33;2.00;;;;;;;;5117758;27;45202;-74
2022/06/28 07:59:57;;;;;;;;;2.00;1.00;;;;;;;;5118488;27;45575;-73
2022/06/28 08:02:25;;;;;;;;;2.00;0.00;;;;;;;;5118808;27;45449;-73
2022/06/28 08:04:51;;;;;;;;;1.00;0.00;;;;;;;;5116371;27;45294;-73
2022/06/28 08:07:16;;;;;;;;;1.00;0.00;;;;;;;;5117580;27;45458;-75
2022/06/28 08:09:41;;;;;;;;;3.00;3.00;;;;;;;;5118163;27;45497;-78
2022/06/28 08:12:07;;;;;;;;;0.67;0.00;;;;;;;;5118726;27;46601;-77
2022/06/28 08:14:33;;;;;;;;;1.33;0.00;;;;;;;;5118618;27;45408;-73
2022/06/28 08:16:58;;;;;;;;;1.33;0.67;;;;;;;;5118812;27;45353;-72
2022/06/28 08:19:23;;;;;;;;;0.00;0.00;;;;;;;;5119043;27;46634;-75
2022/06/28 08:21:49;;;;;;;;;5.00;3.00;;;;;;;;5118452;27;45376;-75
2022/06/28 08:24:14;;;;;;;;;1.67;0.00;;;;;;;;5118700;27;45423;-73
2022/06/28 08:26:42;;;;;;;;;2.33;2.00;;;;;;;;5118483;27;45386;-73
2022/06/28 08:29:08;;;;;;;;;1.00;1.00;;;;;;;;5118791;27;45451;-73
2022/06/28 08:31:34;;;;;;;;;2.33;0.00;;;;;;;;5118361;27;46351;-73
2022/06/28 08:33:59;;;;;;;;;0.00;0.00;;;;;;;;5118219;27;45378;-71
2022/06/28 08:36:24;;;;;;;;;2.00;0.00;;;;;;;;5118159;27;45362;-74
2022/06/28 08:38:49;;;;;;;;;1.00;0.00;;;;;;;;5118070;27;45278;-73
2022/06/28 08:41:15;;;;;;;;;0.00;0.00;;;;;;;;5118156;27;46156;-74
2022/06/28 08:43:40;;;;;;;;;2.00;0.00;;;;;;;;5118497;27;45356;-73
2022/06/28 08:46:06;;;;;;;;;0.00;0.00;;;;;;;;5118345;27;45289;-74
2022/06/28 08:48:34;;;;;;;;;1.33;0.67;;;;;;;;5118279;27;45516;-74
2022/06/28 08:50:59;;;;;;;;;2.00;1.00;;;;;;;;5118111;27;46782;-74
2022/06/28 08:53:25;;;;;;;;;1.00;0.00;;;;;;;;5118349;27;45221;-77
2022/06/28 08:55:50;;;;;;;;;0.00;0.00;;;;;;;;5115395;27;45394;-74
2022/06/28 08:58:16;;;;;;;;;0.00;0.00;;;;;;;;5118212;27;45236;-73
2022/06/28 09:00:41;;;;;;;;;1.00;0.00;;;;;;;;5117916;27;47234;-73
2022/06/28 09:03:07;;;;;;;;;1.67;1.00;;;;;;;;5117662;27;45268;-74
2022/06/28 09:05:32;;;;;;;;;2.00;0.00;;;;;;;;5118009;27;45303;-74
2022/06/28 09:07:58;;;;;;;;;1.00;0.00;;;;;;;;5118382;27;45395;-75
2022/06/28 09:10:24;;;;;;;;;1.00;1.00;;;;;;;;5117857;27;45392;-73
2022/06/28 09:12:55;;;;;;;;;0.33;0.00;;;;;;;;5117925;27;45391;-75
2022/06/28 09:15:21;;;;;;;;;1.00;1.00;;;;;;;;5118253;27;45641;-72
2022/06/28 09:17:48;;;;;;;;;1.00;1.00;;;;;;;;5118048;27;45508;-73
2022/06/28 09:20:14;;;;;;;;;1.00;1.00;;;;;;;;5117763;27;45499;-72
2022/06/28 09:22:39;;;;;;;;;1.67;1.00;;;;;;;;5118158;27;45556;-74
2022/06/28 09:25:06;;;;;;;;;1.00;1.00;;;;;;;;5118547;27;45341;-76
2022/06/28 09:27:36;;;;;;;;;2.00;2.00;;;;;;;;5118417;27;45437;-75
2022/06/28 09:30:02;;;;;;;;;4.00;2.00;;;;;;;;5117505;27;46838;-74
2022/06/28 09:32:32;;;;;;;;;4.67;0.67;;;;;;;;5117751;27;45332;-73
2022/06/28 09:34:59;;;;;;;;;0.67;0.67;;;;;;;;5117668;27;45523;-74
2022/06/28 09:37:34;;;;;;;;;2.67;1.00;;;;;;;;5117766;27;45428;-74
2022/06/28 09:40:10;;;;;;;;;0.00;0.00;;;;;;;;5115928;27;46397;-71
2022/06/28 09:42:35;;;;;;;;;3.00;0.67;;;;;;;;5115426;27;45407;-75
2022/06/28 09:45:00;;;;;;;;;0.00;0.00;;;;;;;;5117519;27;45587;-72
2022/06/28 09:47:26;;;;;;;;;0.00;0.00;;;;;;;;5117605;27;45483;-73
2022/06/28 09:49:51;;;;;;;;;1.00;1.00;;;;;;;;5119043;27;45702;-71
2022/06/28 09:52:19;;;;;;;;;2.33;0.00;;;;;;;;5121098;27;45563;-72
2022/06/28 09:54:46;;;;;;;;;0.00;0.00;;;;;;;;5120766;27;45461;-74
2022/06/28 09:57:12;;;;;;;;;2.67;0.67;;;;;;;;5118611;27;45304;-71
2022/06/28 09:59:37;;;;;;;;;0.00;0.00;;;;;;;;5121101;27;45425;-75
2022/06/28 10:02:03;;;;;;;;;0.67;0.00;;;;;;;;5121787;27;45338;-76
2022/06/28 10:04:28;;;;;;;;;0.00;0.00;;;;;;;;5107064;27;45362;-72
2022/06/28 10:06:54;;;;;;;;;0.00;0.00;;;;;;;;5101260;27;46272;-70
2022/06/28 10:09:20;;;;;;;;;1.00;1.00;;;;;;;;5107695;27;46403;-75
2022/06/28 10:17:29;;;;;;;;;3.00;0.00;;;;;;;;5121711;27;45222;-71
2022/06/28 10:19:57;;;;;;;;;0.00;0.00;;;;;;;;5121349;27;45309;-70
2022/06/28 10:22:22;;;;;;;;;0.00;0.00;;;;;;;;5121189;27;45314;-74
2022/06/28 10:24:55;;;;;;;;;1.00;1.00;;;;;;;;5121209;27;45317;-75
2022/06/28 10:27:20;;;;;;;;;3.00;0.00;;;;;;;;5121770;27;45369;-72
2022/06/28 10:29:58;;;;;;;;;0.25;0.00;;;;;;;;5120929;27;46034;-73
2022/06/28 10:32:41;;;;;;;;;0.00;0.00;;;;;;;;5121432;27;45198;-71
2022/06/28 10:35:07;;;;;;;;;0.00;0.00;;;;;;;;5121070;27;45787;-73
2022/06/28 10:37:32;;;;;;;;;0.75;0.25;;;;;;;;5121494;27;45271;-73
2022/06/28 10:40:16;;;;;;;;;0.00;0.00;;;;;;;;5120984;27;46192;-71
2022/06/28 10:42:49;;;;;;;;;0.00;0.00;;;;;;;;5120990;27;45866;-72
2022/06/28 10:45:14;;;;;;;;;5.50;5.00;;;;;;;;5119834;27;45340;-71
2022/06/28 10:47:59;;;;;;;;;0.75;0.75;;;;;;;;5121084;27;45351;-71
2022/06/28 10:50:24;;;;;;;;;0.00;0.00;;;;;;;;5120569;27;45596;-72
2022/06/28 10:53:00;;;;;;;;;0.00;0.00;;;;;;;;5120838;27;45451;-71
2022/06/28 10:55:25;;;;;;;;;0.50;0.00;;;;;;;;5121022;27;45161;-71
2022/06/28 10:58:05;;;;;;;;;1.25;1.00;;;;;;;;5120910;27;45562;-72
2022/06/28 11:00:34;;;;;;;;;1.50;0.00;;;;;;;;5119765;27;46446;-75
2022/06/28 11:03:01;;;;;;;;;0.00;0.00;;;;;;;;5120285;27;45440;-76
2022/06/28 11:05:44;;;;;;;;;1.00;0.00;;;;;;;;5120610;27;45441;-72
2022/06/28 11:08:11;;;;;;;;;1.00;0.00;;;;;;;;5120727;27;45460;-76
2022/06/28 11:10:36;;;;;;;;;0.00;0.00;;;;;;;;5120394;27;45447;-75
2022/06/28 11:13:18;;;;;;;;;3.00;0.33;;;;;;;;5120420;27;45329;-81
2022/06/28 11:15:43;;;;;;;;;3.67;0.00;;;;;;;;5120572;27;45267;-79
2022/06/28 11:18:15;;;;;;;;;0.00;0.00;;;;;;;;5120794;27;45488;-73
2022/06/28 11:20:41;;;;;;;;;1.33;0.67;;;;;;;;5120406;27;46646;-71
2022/06/28 11:23:06;;;;;;;;;1.00;1.00;;;;;;;;5120047;27;45227;-74
2022/06/28 11:28:15;;;;;;;;;0.33;0.33;;;;;;;;5120690;27;45241;-72
2022/06/28 11:30:42;;;;;;;;;1.33;0.67;;;;;;;;5119840;27;46311;-73
2022/06/28 11:33:08;;;;;;;;;1.67;0.67;;;;;;;;5120244;27;45838;-75
2022/06/28 11:35:34;;;;;;;;;0.67;0.67;;;;;;;;5120186;27;45161;-76
2022/06/28 11:38:05;;;;;;;;;1.00;1.00;;;;;;;;5120378;27;45315;-76
2022/06/28 11:40:49;;;;;;;;;3.33;3.33;;;;;;;;5119729;27;46235;-72
2022/06/28 11:43:15;;;;;;;;;0.33;0.33;;;;;;;;5119851;27;45309;-73
2022/06/28 11:45:42;;;;;;;;;1.67;1.00;;;;;;;;5120213;27;45288;-73
2022/06/28 11:48:10;;;;;;;;;2.00;1.00;;;;;;;;5120146;27;45279;-77
2022/06/28 11:50:52;;;;;;;;;0.67;0.67;;;;;;;;5119898;27;46556;-74
2022/06/28 11:53:18;;;;;;;;;2.33;1.00;;;;;;;;5119933;27;45254;-72
2022/06/28 11:55:46;;;;;;;;;1.33;1.33;;;;;;;;5119927;27;45444;-71
2022/06/28 11:58:17;;;;;;;;;1.67;1.00;;;;;;;;5119837;27;45368;-71
2022/06/28 12:01:01;;;;;;;;;2.00;1.00;;;;;;;;5117983;27;47710;-75
2022/06/28 12:03:27;;;;;;;;;4.00;4.00;;;;;;;;5119626;27;45400;-71
2022/06/28 12:05:57;;;;;;;;;1.00;1.00;;;;;;;;5118970;27;45767;-73
2022/06/28 12:08:46;;;;;;;;;3.00;1.00;;;;;;;;5119755;27;45472;-71
2022/06/28 12:11:30;;;;;;;;;2.67;0.67;;;;;;;;5119174;27;45411;-74
2022/06/28 12:13:59;;;;;;;;;1.67;1.00;;;;;;;;5119436;27;45697;-70
2022/06/28 12:16:32;;;;;;;;;2.67;1.00;;;;;;;;5119639;27;45350;-71
2022/06/28 12:18:58;;;;;;;;;0.00;0.00;;;;;;;;5119683;27;45269;-74
2022/06/28 12:21:23;;;;;;;;;4.00;1.00;;;;;;;;5119355;27;47514;-75
2022/06/28 12:23:49;;;;;;;;;1.00;1.00;;;;;;;;5119346;27;45416;-76
2022/06/28 12:26:15;;;;;;;;;1.00;1.00;;;;;;;;5119670;27;45385;-82
2022/06/28 12:28:40;;;;;;;;;0.33;0.33;;;;;;;;5119799;27;45418;-75
2022/06/28 12:31:05;;;;;;;;;1.67;1.67;;;;;;;;5119206;27;46241;-75
2022/06/28 12:33:30;;;;;;;;;1.00;1.00;;;;;;;;5119354;27;45345;-70
2022/06/28 12:35:56;;;;;;;;;2.00;2.00;;;;;;;;5119189;27;45393;-72
2022/06/28 12:38:21;;;;;;;;;6.00;6.00;;;;;;;;5119279;27;45373;-77
2022/06/28 12:40:46;;;;;;;;;3.00;1.00;;;;;;;;5119241;27;45612;-75
2022/06/28 12:43:11;;;;;;;;;1.00;1.00;;;;;;;;5119120;27;45386;-80
2022/06/28 12:45:36;;;;;;;;;1.00;1.00;;;;;;;;5119500;27;45324;-76
2022/06/28 12:48:02;;;;;;;;;2.00;1.00;;;;;;;;5119124;27;45493;-75
2022/06/28 12:50:27;;;;;;;;;1.00;1.00;;;;;;;;5119022;27;45599;-70
2022/06/28 12:52:52;;;;;;;;;1.00;1.00;;;;;;;;5119203;27;45314;-73
2022/06/28 12:55:18;;;;;;;;;0.00;0.00;;;;;;;;5119037;27;45385;-76
2022/06/28 12:57:44;;;;;;;;;1.00;1.00;;;;;;;;5119470;27;45349;-76
2022/06/28 13:00:11;;;;;;;;;4.00;2.00;;;;;;;;5118447;27;45398;-77
2022/06/28 13:02:36;;;;;;;;;1.33;1.33;;;;;;;;5118697;27;45248;-74
2022/06/28 13:05:02;;;;;;;;;1.00;1.00;;;;;;;;5119053;27;45274;-74
2022/06/28 13:07:27;;;;;;;;;1.00;1.00;;;;;;;;5118958;27;45196;-74
2022/06/28 13:09:52;;;;;;;;;1.00;1.00;;;;;;;;5117506;27;45301;-78
2022/06/28 13:12:18;;;;;;;;;1.00;1.00;;;;;;;;5118691;27;45420;-76
2022/06/28 13:14:43;;;;;;;;;2.33;1.00;;;;;;;;5118888;27;45157;-74
2022/06/28 13:17:08;;;;;;;;;1.00;1.00;;;;;;;;5118933;27;45374;-73
2022/06/28 13:19:34;;;;;;;;;3.00;1.00;;;;;;;;5118651;27;45768;-74
2022/06/28 13:21:59;;;;;;;;;0.00;0.00;;;;;;;;5118665;27;45359;-82
2022/06/28 13:24:24;;;;;;;;;1.67;1.67;;;;;;;;5121300;27;45282;-74
2022/06/28 13:26:49;;;;;;;;;0.00;0.00;;;;;;;;5122676;27;45373;-77
2022/06/28 13:29:14;;;;;;;;;1.67;1.67;;;;;;;;5122128;27;46496;-76
2022/06/28 13:31:40;;;;;;;;;1.33;0.00;;;;;;;;5115010;27;45384;-76
2022/06/28 13:34:05;;;;;;;;;2.00;2.00;;;;;;;;5110303;27;45317;-75
2022/06/28 13:36:31;;;;;;;;;4.00;2.00;;;;;;;;5101543;27;45366;-74
2022/06/28 13:38:56;;;;;;;;;1.00;1.00;;;;;;;;5101308;27;45676;-74
2022/06/28 13:41:22;;;;;;;;;1.67;1.67;;;;;;;;5101268;27;45433;-74
2022/06/28 13:43:47;;;;;;;;;0.00;0.00;;;;;;;;5101390;27;45298;-79
2022/06/28 13:46:15;;;;;;;;;1.67;1.67;;;;;;;;5101696;27;45333;-77
2022/06/28 13:48:40;;;;;;;;;1.67;1.67;;;;;;;;5100934;27;46384;-80
2022/06/28 13:51:06;;;;;;;;;1.00;1.00;;;;;;;;5101241;27;45203;-77
2022/06/28 13:53:32;;;;;;;;;1.00;1.00;;;;;;;;5101283;27;45220;-80
2022/06/28 13:55:59;;;;;;;;;1.67;1.33;;;;;;;;5101457;27;46024;-74
2022/06/28 13:58:25;;;;;;;;;1.00;1.00;;;;;;;;5100640;27;46549;-75
2022/06/28 14:00:50;;;;;;;;;1.00;1.00;;;;;;;;5100902;27;45409;-79
2022/06/28 14:03:16;;;;;;;;;2.00;1.00;;;;;;;;5101408;27;45337;-74
2022/06/28 14:05:43;;;;;;;;;2.00;1.00;;;;;;;;5101062;27;45532;-79
2022/06/28 14:08:09;;;;;;;;;0.00;0.00;;;;;;;;5100871;27;45636;-76
2022/06/28 14:10:34;;;;;;;;;1.00;1.00;;;;;;;;5100839;27;45423;-71
2022/06/28 14:13:01;;;;;;;;;1.00;0.00;;;;;;;;5101004;27;45390;-73
2022/06/28 14:15:26;;;;;;;;;1.00;0.67;;;;;;;;5101077;27;45268;-74
2022/06/28 14:17:51;;;;;;;;;1.00;1.00;;;;;;;;5100765;27;46689;-69
2022/06/28 14:20:17;;;;;;;;;1.33;1.33;;;;;;;;5100647;27;45328;-70
2022/06/28 14:22:42;;;;;;;;;1.00;1.00;;;;;;;;5100951;27;45291;-71
2022/06/28 14:25:07;;;;;;;;;1.67;1.67;;;;;;;;5100993;27;45150;-71
2022/06/28 14:27:33;;;;;;;;;1.00;1.00;;;;;;;;5101178;27;45621;-69
2022/06/28 14:29:58;;;;;;;;;1.00;1.00;;;;;;;;5100622;27;45378;-75
2022/06/28 14:32:23;;;;;;;;;1.00;1.00;;;;;;;;5101035;27;45271;-77
2022/06/28 14:34:48;;;;;;;;;1.00;1.00;;;;;;;;5100048;27;45413;-81
2022/06/28 14:37:14;;;;;;;;;3.00;2.00;;;;;;;;5100185;27;46600;-79
2022/06/28 14:39:39;;;;;;;;;2.00;1.00;;;;;;;;5100631;27;45476;-79
2022/06/28 14:42:05;;;;;;;;;2.00;2.00;;;;;;;;5100383;27;45261;-78
2022/06/28 14:44:30;;;;;;;;;2.00;2.00;;;;;;;;5100726;27;45443;-82
2022/06/28 14:46:56;;;;;;;;;2.00;2.00;;;;;;;;5100437;27;45334;-74
2022/06/28 14:49:21;;;;;;;;;3.00;3.00;;;;;;;;5100268;27;45326;-74
2022/06/28 14:51:46;;;;;;;;;1.00;1.00;;;;;;;;5100479;27;45549;-77
2022/06/28 14:54:12;;;;;;;;;0.00;0.00;;;;;;;;5100612;27;45420;-74
2022/06/28 14:56:37;;;;;;;;;2.00;1.00;;;;;;;;5099298;27;45511;-81